sensor_id;sensor_type;location;lat;lon;timestamp;pressure;altitude;pressure_sealevel;temperature;humidity
49102;BME280;34913;47.520;19.186;2024-03-23T00:55:35;99576.25;;;9.62;67.94
49102;BME280;34913;47.520;19.186;2024-03-23T00:58:00;99570.06;;;9.51;68.20
49102;BME280;34913;47.520;19.186;2024-03-23T01:00:26;99566.38;;;9.43;68.29
49102;BME280;34913;47.520;19.186;2024-03-23T01:02:51;99557.91;;;9.49;68.37
49102;BME280;34913;47.520;19.186;2024-03-23T01:05:17;99553.00;;;9.44;68.41
49102;BME280;34913;47.520;19.186;2024-03-23T01:07:42;99552.28;;;9.42;68.59
49102;BME280;34913;47.520;19.186;2024-03-23T01:10:07;99547.13;;;9.41;68.50
49102;BME280;34913;47.520;19.186;2024-03-23T01:12:33;99544.69;;;9.49;68.21
49102;BME280;34913;47.520;19.186;2024-03-23T01:14:58;99549.84;;;9.50;68.38
49102;BME280;34913;47.520;19.186;2024-03-23T01:17:24;99548.28;;;9.48;68.30
49102;BME280;34913;47.520;19.186;2024-03-23T01:19:49;99542.72;;;9.51;67.97
49102;BME280;34913;47.520;19.186;2024-03-23T01:22:14;99544.13;;;9.55;68.07
49102;BME280;34913;47.520;19.186;2024-03-23T01:24:40;99543.69;;;9.50;68.11
49102;BME280;34913;47.520;19.186;2024-03-23T01:27:05;99536.53;;;9.41;68.14
49102;BME280;34913;47.520;19.186;2024-03-23T01:29:30;99537.56;;;9.49;68.31
49102;BME280;34913;47.520;19.186;2024-03-23T01:31:56;99534.06;;;9.49;68.27
49102;BME280;34913;47.520;19.186;2024-03-23T01:34:21;99520.19;;;9.36;68.82
49102;BME280;34913;47.520;19.186;2024-03-23T01:36:47;99529.53;;;9.40;68.77
49102;BME280;34913;47.520;19.186;2024-03-23T01:39:13;99523.41;;;9.39;68.71
49102;BME280;34913;47.520;19.186;2024-03-23T01:41:39;99521.03;;;9.36;69.04
49102;BME280;34913;47.520;19.186;2024-03-23T01:44:08;99519.69;;;9.42;68.81
49102;BME280;34913;47.520;19.186;2024-03-23T01:46:37;99519.25;;;9.46;68.82
49102;BME280;34913;47.520;19.186;2024-03-23T01:49:04;99515.13;;;9.54;68.62
49102;BME280;34913;47.520;19.186;2024-03-23T01:51:30;99519.72;;;9.51;68.61
49102;BME280;34913;47.520;19.186;2024-03-23T01:53:56;99519.44;;;9.55;68.92
49102;BME280;34913;47.520;19.186;2024-03-23T01:56:22;99513.75;;;9.59;68.54
49102;BME280;34913;47.520;19.186;2024-03-23T01:58:47;99513.09;;;9.67;68.01
49102;BME280;34913;47.520;19.186;2024-03-23T02:01:12;99515.28;;;9.62;68.73
49102;BME280;34913;47.520;19.186;2024-03-23T02:03:38;99513.00;;;9.47;69.33
49102;BME280;34913;47.520;19.186;2024-03-23T02:06:03;99507.41;;;9.41;69.15
49102;BME280;34913;47.520;19.186;2024-03-23T02:08:30;99502.44;;;9.27;69.68
49102;BME280;34913;47.520;19.186;2024-03-23T02:10:56;99510.91;;;9.20;70.11
49102;BME280;34913;47.520;19.186;2024-03-23T02:13:21;99498.91;;;9.16;70.62
49102;BME280;34913;47.520;19.186;2024-03-23T02:15:47;99506.63;;;9.08;71.71
49102;BME280;34913;47.520;19.186;2024-03-23T02:18:13;99500.56;;;9.17;71.16
49102;BME280;34913;47.520;19.186;2024-03-23T02:20:39;99496.50;;;9.13;71.28
49102;BME280;34913;47.520;19.186;2024-03-23T02:23:05;99494.50;;;9.27;70.67
49102;BME280;34913;47.520;19.186;2024-03-23T02:25:33;99482.66;;;9.31;70.11
49102;BME280;34913;47.520;19.186;2024-03-23T02:27:59;99494.41;;;9.38;69.98
49102;BME280;34913;47.520;19.186;2024-03-23T02:30:25;99495.50;;;9.35;69.85
49102;BME280;34913;47.520;19.186;2024-03-23T02:32:51;99490.78;;;9.39;69.61
49102;BME280;34913;47.520;19.186;2024-03-23T02:35:16;99486.03;;;9.33;69.67
49102;BME280;34913;47.520;19.186;2024-03-23T02:37:41;99483.38;;;9.33;69.78
49102;BME280;34913;47.520;19.186;2024-03-23T02:40:07;99475.50;;;9.21;69.97
49102;BME280;34913;47.520;19.186;2024-03-23T02:42:32;99479.91;;;9.32;69.78
49102;BME280;34913;47.520;19.186;2024-03-23T02:44:58;99466.81;;;9.10;70.86
49102;BME280;34913;47.520;19.186;2024-03-23T02:47:23;99461.25;;;9.13;70.49
49102;BME280;34913;47.520;19.186;2024-03-23T02:49:49;99460.72;;;9.19;70.47
49102;BME280;34913;47.520;19.186;2024-03-23T02:52:14;99463.94;;;9.22;70.67
49102;BME280;34913;47.520;19.186;2024-03-23T02:54:39;99457.81;;;9.22;70.69
49102;BME280;34913;47.520;19.186;2024-03-23T02:57:07;99458.41;;;9.26;70.54
49102;BME280;34913;47.520;19.186;2024-03-23T02:59:32;99456.00;;;9.22;70.88
49102;BME280;34913;47.520;19.186;2024-03-23T03:01:58;99461.22;;;9.34;70.61
49102;BME280;34913;47.520;19.186;2024-03-23T03:04:25;99455.84;;;9.24;70.94
49102;BME280;34913;47.520;19.186;2024-03-23T03:06:50;99449.06;;;9.01;71.95
49102;BME280;34913;47.520;19.186;2024-03-23T03:09:15;99452.13;;;9.06;71.77
49102;BME280;34913;47.520;19.186;2024-03-23T03:11:41;99446.88;;;9.15;71.77
49102;BME280;34913;47.520;19.186;2024-03-23T03:14:06;99447.47;;;9.19;71.52
49102;BME280;34913;47.520;19.186;2024-03-23T03:16:33;99444.31;;;9.25;71.02
49102;BME280;34913;47.520;19.186;2024-03-23T03:18:58;99445.25;;;9.24;71.10
49102;BME280;34913;47.520;19.186;2024-03-23T03:21:23;99440.50;;;9.18;71.29
49102;BME280;34913;47.520;19.186;2024-03-23T03:23:49;99443.16;;;9.18;71.24
49102;BME280;34913;47.520;19.186;2024-03-23T03:26:18;99446.66;;;9.18;71.23
49102;BME280;34913;47.520;19.186;2024-03-23T03:28:43;99452.19;;;9.15;71.45
49102;BME280;34913;47.520;19.186;2024-03-23T03:31:17;99441.88;;;9.12;71.40
49102;BME280;34913;47.520;19.186;2024-03-23T03:33:43;99439.59;;;9.08;72.04
49102;BME280;34913;47.520;19.186;2024-03-23T03:36:08;99440.25;;;9.00;72.16
49102;BME280;34913;47.520;19.186;2024-03-23T03:38:34;99434.00;;;9.01;72.56
49102;BME280;34913;47.520;19.186;2024-03-23T03:41:01;99436.47;;;8.93;72.90
49102;BME280;34913;47.520;19.186;2024-03-23T03:43:26;99434.84;;;8.81;73.33
49102;BME280;34913;47.520;19.186;2024-03-23T03:45:56;99438.47;;;8.80;73.54
49102;BME280;34913;47.520;19.186;2024-03-23T03:48:22;99432.78;;;8.84;73.35
49102;BME280;34913;47.520;19.186;2024-03-23T03:50:47;99435.56;;;8.83;73.61
49102;BME280;34913;47.520;19.186;2024-03-23T03:53:13;99428.78;;;8.90;73.15
49102;BME280;34913;47.520;19.186;2024-03-23T03:55:38;99432.78;;;8.84;73.57
49102;BME280;34913;47.520;19.186;2024-03-23T03:58:04;99426.41;;;8.87;73.63
49102;BME280;34913;47.520;19.186;2024-03-23T04:00:32;99420.69;;;8.91;73.47
49102;BME280;34913;47.520;19.186;2024-03-23T04:02:57;99423.25;;;8.93;73.16
49102;BME280;34913;47.520;19.186;2024-03-23T04:05:23;99419.81;;;9.02;73.09
49102;BME280;34913;47.520;19.186;2024-03-23T04:07:49;99417.34;;;8.89;73.44
49102;BME280;34913;47.520;19.186;2024-03-23T04:10:14;99422.00;;;8.97;73.28
49102;BME280;34913;47.520;19.186;2024-03-23T04:12:43;99426.31;;;8.98;73.17
49102;BME280;34913;47.520;19.186;2024-03-23T04:15:09;99420.84;;;8.90;73.42
49102;BME280;34913;47.520;19.186;2024-03-23T04:17:34;99421.69;;;8.90;73.50
49102;BME280;34913;47.520;19.186;2024-03-23T04:20:01;99421.53;;;8.92;73.64
49102;BME280;34913;47.520;19.186;2024-03-23T04:22:27;99421.22;;;9.06;73.07
49102;BME280;34913;47.520;19.186;2024-03-23T04:24:58;99417.91;;;9.14;73.09
49102;BME280;34913;47.520;19.186;2024-03-23T04:27:23;99411.81;;;9.23;72.47
49102;BME280;34913;47.520;19.186;2024-03-23T04:29:49;99411.22;;;9.10;72.44
49102;BME280;34913;47.520;19.186;2024-03-23T04:32:15;99405.47;;;9.05;72.44
49102;BME280;34913;47.520;19.186;2024-03-23T04:34:42;99411.47;;;9.07;72.69
49102;BME280;34913;47.520;19.186;2024-03-23T04:37:10;99399.00;;;8.98;72.57
49102;BME280;34913;47.520;19.186;2024-03-23T04:39:38;99387.13;;;8.92;72.76
49102;BME280;34913;47.520;19.186;2024-03-23T04:42:04;99395.84;;;9.04;72.93
49102;BME280;34913;47.520;19.186;2024-03-23T04:44:30;99399.19;;;9.06;73.15
49102;BME280;34913;47.520;19.186;2024-03-23T04:46:56;99394.41;;;9.00;73.34
49102;BME280;34913;47.520;19.186;2024-03-23T04:49:22;99395.25;;;9.00;73.77
49102;BME280;34913;47.520;19.186;2024-03-23T04:51:47;99387.69;;;9.16;73.61
49102;BME280;34913;47.520;19.186;2024-03-23T04:54:12;99393.94;;;9.15;73.52
49102;BME280;34913;47.520;19.186;2024-03-23T04:56:38;99401.03;;;9.15;73.75
49102;BME280;34913;47.520;19.186;2024-03-23T04:59:04;99407.59;;;9.11;74.31
49102;BME280;34913;47.520;19.186;2024-03-23T05:01:30;99403.13;;;9.11;74.33
49102;BME280;34913;47.520;19.186;2024-03-23T05:03:56;99400.34;;;9.13;74.41
49102;BME280;34913;47.520;19.186;2024-03-23T05:06:22;99404.94;;;9.11;74.71
49102;BME280;34913;47.520;19.186;2024-03-23T05:08:48;99392.41;;;9.13;74.98
49102;BME280;34913;47.520;19.186;2024-03-23T05:11:14;99397.50;;;9.26;74.41
49102;BME280;34913;47.520;19.186;2024-03-23T05:13:41;99398.66;;;9.42;73.99
49102;BME280;34913;47.520;19.186;2024-03-23T05:16:06;99407.75;;;9.49;74.08
49102;BME280;34913;47.520;19.186;2024-03-23T05:18:31;99400.22;;;9.55;73.53
49102;BME280;34913;47.520;19.186;2024-03-23T05:20:57;99399.44;;;9.64;73.40
49102;BME280;34913;47.520;19.186;2024-03-23T05:23:24;99402.25;;;9.72;73.31
49102;BME280;34913;47.520;19.186;2024-03-23T05:25:49;99403.09;;;9.82;72.66
49102;BME280;34913;47.520;19.186;2024-03-23T05:28:15;99393.19;;;9.84;72.85
49102;BME280;34913;47.520;19.186;2024-03-23T05:30:40;99386.50;;;9.90;72.67
49102;BME280;34913;47.520;19.186;2024-03-23T05:33:06;99387.50;;;9.98;72.11
49102;BME280;34913;47.520;19.186;2024-03-23T05:35:31;99385.41;;;10.02;72.07
49102;BME280;34913;47.520;19.186;2024-03-23T05:37:57;99388.03;;;10.02;71.69
49102;BME280;34913;47.520;19.186;2024-03-23T05:40:24;99383.72;;;10.11;71.52
49102;BME280;34913;47.520;19.186;2024-03-23T05:42:49;99378.56;;;10.09;71.63
49102;BME280;34913;47.520;19.186;2024-03-23T05:45:18;99373.56;;;10.16;71.59
49102;BME280;34913;47.520;19.186;2024-03-23T05:47:43;99378.84;;;10.16;72.05
49102;BME280;34913;47.520;19.186;2024-03-23T05:50:09;99378.03;;;10.25;71.90
49102;BME280;34913;47.520;19.186;2024-03-23T05:52:38;99376.38;;;10.33;71.93
49102;BME280;34913;47.520;19.186;2024-03-23T05:55:04;99376.09;;;10.46;72.14
49102;BME280;34913;47.520;19.186;2024-03-23T05:57:29;99382.78;;;10.41;72.75
49102;BME280;34913;47.520;19.186;2024-03-23T05:59:55;99376.78;;;10.39;72.83
49102;BME280;34913;47.520;19.186;2024-03-23T06:02:20;99374.81;;;10.50;72.82
49102;BME280;34913;47.520;19.186;2024-03-23T06:04:46;99373.00;;;10.22;73.71
49102;BME280;34913;47.520;19.186;2024-03-23T06:07:11;99372.63;;;10.36;73.94
49102;BME280;34913;47.520;19.186;2024-03-23T06:09:41;99368.69;;;10.40;73.91
49102;BME280;34913;47.520;19.186;2024-03-23T06:12:07;99365.06;;;10.51;74.00
49102;BME280;34913;47.520;19.186;2024-03-23T06:14:33;99369.03;;;10.74;73.23
49102;BME280;34913;47.520;19.186;2024-03-23T06:16:59;99360.97;;;10.66;73.33
49102;BME280;34913;47.520;19.186;2024-03-23T06:19:25;99360.56;;;10.71;73.19
49102;BME280;34913;47.520;19.186;2024-03-23T06:21:54;99360.94;;;10.85;73.04
49102;BME280;34913;47.520;19.186;2024-03-23T06:24:21;99360.94;;;10.85;72.60
49102;BME280;34913;47.520;19.186;2024-03-23T06:26:47;99355.47;;;10.87;72.49
49102;BME280;34913;47.520;19.186;2024-03-23T06:29:12;99351.94;;;10.96;72.70
49102;BME280;34913;47.520;19.186;2024-03-23T06:31:37;99348.66;;;10.84;73.09
49102;BME280;34913;47.520;19.186;2024-03-23T06:34:02;99347.88;;;11.02;72.92
49102;BME280;34913;47.520;19.186;2024-03-23T06:36:28;99337.91;;;11.13;73.08
49102;BME280;34913;47.520;19.186;2024-03-23T06:38:55;99337.78;;;11.05;73.18
49102;BME280;34913;47.520;19.186;2024-03-23T06:41:21;99338.41;;;11.27;73.39
49102;BME280;34913;47.520;19.186;2024-03-23T06:43:46;99331.97;;;11.74;71.63
49102;BME280;34913;47.520;19.186;2024-03-23T06:46:11;99329.91;;;12.14;69.79
49102;BME280;34913;47.520;19.186;2024-03-23T06:48:37;99322.09;;;12.56;68.46
49102;BME280;34913;47.520;19.186;2024-03-23T06:51:02;99320.50;;;12.45;68.25
49102;BME280;34913;47.520;19.186;2024-03-23T06:53:28;99309.03;;;12.45;67.53
49102;BME280;34913;47.520;19.186;2024-03-23T06:55:54;99309.13;;;12.35;68.53
49102;BME280;34913;47.520;19.186;2024-03-23T06:58:21;99323.06;;;12.55;67.91
49102;BME280;34913;47.520;19.186;2024-03-23T07:00:47;99325.28;;;12.60;67.09
49102;BME280;34913;47.520;19.186;2024-03-23T07:03:12;99324.03;;;12.72;66.88
49102;BME280;34913;47.520;19.186;2024-03-23T07:05:38;99321.34;;;12.98;66.19
49102;BME280;34913;47.520;19.186;2024-03-23T07:08:03;99320.84;;;13.02;66.04
49102;BME280;34913;47.520;19.186;2024-03-23T07:10:29;99322.13;;;12.90;66.17
49102;BME280;34913;47.520;19.186;2024-03-23T07:12:54;99310.06;;;12.78;65.96
49102;BME280;34913;47.520;19.186;2024-03-23T07:15:19;99309.41;;;12.76;66.49
49102;BME280;34913;47.520;19.186;2024-03-23T07:17:47;99320.09;;;12.84;66.56
49102;BME280;34913;47.520;19.186;2024-03-23T07:20:12;99319.81;;;12.95;66.41
49102;BME280;34913;47.520;19.186;2024-03-23T07:22:38;99318.97;;;12.95;66.27
49102;BME280;34913;47.520;19.186;2024-03-23T07:25:05;99319.38;;;13.08;66.44
49102;BME280;34913;47.520;19.186;2024-03-23T07:27:30;99309.47;;;13.60;65.09
49102;BME280;34913;47.520;19.186;2024-03-23T07:29:56;99288.19;;;13.93;63.46
49102;BME280;34913;47.520;19.186;2024-03-23T07:32:21;99297.50;;;14.05;62.66
49102;BME280;34913;47.520;19.186;2024-03-23T07:34:46;99291.69;;;14.26;61.06
49102;BME280;34913;47.520;19.186;2024-03-23T07:37:12;99290.50;;;14.20;61.58
49102;BME280;34913;47.520;19.186;2024-03-23T07:39:39;99283.34;;;14.29;61.37
49102;BME280;34913;47.520;19.186;2024-03-23T07:42:04;99281.00;;;14.26;61.26
49102;BME280;34913;47.520;19.186;2024-03-23T07:44:30;99270.69;;;14.15;61.62
49102;BME280;34913;47.520;19.186;2024-03-23T07:46:56;99269.34;;;14.11;61.50
49102;BME280;34913;47.520;19.186;2024-03-23T07:49:21;99263.34;;;14.17;62.14
49102;BME280;34913;47.520;19.186;2024-03-23T07:51:46;99260.47;;;14.43;61.64
49102;BME280;34913;47.520;19.186;2024-03-23T07:54:12;99253.25;;;14.68;61.22
49102;BME280;34913;47.520;19.186;2024-03-23T07:56:37;99245.09;;;14.69;60.91
49102;BME280;34913;47.520;19.186;2024-03-23T07:59:03;99237.66;;;14.96;59.85
49102;BME280;34913;47.520;19.186;2024-03-23T08:01:28;99240.91;;;15.14;59.77
49102;BME280;34913;47.520;19.186;2024-03-23T08:03:54;99242.41;;;15.17;59.35
49102;BME280;34913;47.520;19.186;2024-03-23T08:06:20;99245.38;;;15.22;59.27
49102;BME280;34913;47.520;19.186;2024-03-23T08:08:49;99244.03;;;15.26;59.23
49102;BME280;34913;47.520;19.186;2024-03-23T08:11:15;99247.81;;;15.31;58.54
49102;BME280;34913;47.520;19.186;2024-03-23T08:13:42;99233.28;;;15.34;58.69
49102;BME280;34913;47.520;19.186;2024-03-23T08:16:07;99241.00;;;15.29;59.04
49102;BME280;34913;47.520;19.186;2024-03-23T08:18:37;99240.97;;;15.37;58.72
49102;BME280;34913;47.520;19.186;2024-03-23T08:21:06;99231.28;;;15.67;59.07
49102;BME280;34913;47.520;19.186;2024-03-23T08:23:35;99234.06;;;15.97;57.69
49102;BME280;34913;47.520;19.186;2024-03-23T08:26:04;99231.47;;;16.41;56.79
49102;BME280;34913;47.520;19.186;2024-03-23T08:28:31;99237.47;;;16.43;55.29
49102;BME280;34913;47.520;19.186;2024-03-23T08:30:56;99233.88;;;16.36;55.77
49102;BME280;34913;47.520;19.186;2024-03-23T08:33:23;99223.25;;;16.42;55.15
49102;BME280;34913;47.520;19.186;2024-03-23T08:36:03;99218.38;;;16.90;55.00
49102;BME280;34913;47.520;19.186;2024-03-23T08:38:29;99222.19;;;16.81;54.81
49102;BME280;34913;47.520;19.186;2024-03-23T08:43:27;99195.19;;;16.97;53.82
49102;BME280;34913;47.520;19.186;2024-03-23T08:45:52;99203.91;;;17.21;53.92
49102;BME280;34913;47.520;19.186;2024-03-23T08:48:21;99200.38;;;16.99;54.13
49102;BME280;34913;47.520;19.186;2024-03-23T08:50:47;99200.31;;;17.14;53.65
49102;BME280;34913;47.520;19.186;2024-03-23T08:53:13;99204.28;;;17.33;53.58
49102;BME280;34913;47.520;19.186;2024-03-23T08:55:38;99198.38;;;17.22;52.92
49102;BME280;34913;47.520;19.186;2024-03-23T08:58:03;99183.38;;;17.28;53.18
49102;BME280;34913;47.520;19.186;2024-03-23T09:00:29;99186.53;;;17.32;52.87
49102;BME280;34913;47.520;19.186;2024-03-23T09:02:55;99196.06;;;17.19;53.15
49102;BME280;34913;47.520;19.186;2024-03-23T09:05:22;99188.03;;;17.19;52.93
49102;BME280;34913;47.520;19.186;2024-03-23T09:07:49;99184.59;;;17.25;52.67
49102;BME280;34913;47.520;19.186;2024-03-23T09:10:14;99183.97;;;17.45;52.25
49102;BME280;34913;47.520;19.186;2024-03-23T09:12:40;99179.50;;;17.52;52.00
49102;BME280;34913;47.520;19.186;2024-03-23T09:15:05;99174.41;;;17.57;51.93
49102;BME280;34913;47.520;19.186;2024-03-23T09:17:30;99159.91;;;18.01;51.58
49102;BME280;34913;47.520;19.186;2024-03-23T09:19:56;99165.28;;;18.63;50.63
49102;BME280;34913;47.520;19.186;2024-03-23T09:22:21;99157.41;;;18.90;48.83
49102;BME280;34913;47.520;19.186;2024-03-23T09:24:47;99152.81;;;19.51;48.40
49102;BME280;34913;47.520;19.186;2024-03-23T09:27:12;99154.72;;;19.84;47.88
49102;BME280;34913;47.520;19.186;2024-03-23T09:29:37;99155.94;;;20.48;45.91
49102;BME280;34913;47.520;19.186;2024-03-23T09:32:03;99144.69;;;20.38;46.61
49102;BME280;34913;47.520;19.186;2024-03-23T09:34:28;99143.50;;;20.20;45.44
49102;BME280;34913;47.520;19.186;2024-03-23T09:36:54;99139.38;;;20.18;45.96
49102;BME280;34913;47.520;19.186;2024-03-23T09:39:19;99137.31;;;19.87;47.06
49102;BME280;34913;47.520;19.186;2024-03-23T09:41:45;99131.50;;;19.90;47.60
49102;BME280;34913;47.520;19.186;2024-03-23T09:44:11;99125.50;;;19.94;47.60
49102;BME280;34913;47.520;19.186;2024-03-23T09:46:36;99114.72;;;19.81;47.52
49102;BME280;34913;47.520;19.186;2024-03-23T09:49:06;99119.09;;;19.75;47.88
49102;BME280;34913;47.520;19.186;2024-03-23T09:51:35;99118.69;;;19.92;47.99
49102;BME280;34913;47.520;19.186;2024-03-23T09:54:00;99107.47;;;19.88;48.51
49102;BME280;34913;47.520;19.186;2024-03-23T09:56:26;99114.66;;;20.47;47.78
49102;BME280;34913;47.520;19.186;2024-03-23T09:58:51;99106.53;;;20.60;46.72
49102;BME280;34913;47.520;19.186;2024-03-23T10:01:25;99110.16;;;20.86;45.24
49102;BME280;34913;47.520;19.186;2024-03-23T10:03:50;99090.34;;;21.05;45.32
49102;BME280;34913;47.520;19.186;2024-03-23T10:06:21;99055.25;;;20.67;45.25
49102;BME280;34913;47.520;19.186;2024-03-23T10:08:46;99092.44;;;21.03;44.48
49102;BME280;34913;47.520;19.186;2024-03-23T10:11:13;99081.56;;;21.48;45.27
49102;BME280;34913;47.520;19.186;2024-03-23T10:13:44;99066.22;;;21.73;43.44
49102;BME280;34913;47.520;19.186;2024-03-23T10:16:11;99073.97;;;22.13;43.31
49102;BME280;34913;47.520;19.186;2024-03-23T10:18:40;99076.28;;;22.46;41.62
49102;BME280;34913;47.520;19.186;2024-03-23T10:23:31;99060.09;;;22.76;41.13
49102;BME280;34913;47.520;19.186;2024-03-23T10:26:12;99056.69;;;22.99;38.67
49102;BME280;34913;47.520;19.186;2024-03-23T10:31:15;99059.81;;;23.15;36.29
49102;BME280;34913;47.520;19.186;2024-03-23T10:33:47;99036.94;;;22.80;36.10
49102;BME280;34913;47.520;19.186;2024-03-23T10:36:13;99037.38;;;22.47;35.91
49102;BME280;34913;47.520;19.186;2024-03-23T10:38:43;99033.69;;;22.60;36.04
49102;BME280;34913;47.520;19.186;2024-03-23T10:41:09;99024.91;;;22.46;35.26
49102;BME280;34913;47.520;19.186;2024-03-23T10:43:38;99033.06;;;22.03;35.06
49102;BME280;34913;47.520;19.186;2024-03-23T10:46:04;99015.78;;;22.29;36.19
49102;BME280;34913;47.520;19.186;2024-03-23T10:48:31;99015.31;;;22.14;36.14
49102;BME280;34913;47.520;19.186;2024-03-23T10:50:56;99014.25;;;22.33;36.09
49102;BME280;34913;47.520;19.186;2024-03-23T10:53:25;99000.22;;;22.24;37.08
49102;BME280;34913;47.520;19.186;2024-03-23T10:55:51;99001.41;;;22.10;36.25
49102;BME280;34913;47.520;19.186;2024-03-23T10:58:23;99012.53;;;22.20;34.50
49102;BME280;34913;47.520;19.186;2024-03-23T11:00:49;98992.88;;;22.13;35.36
49102;BME280;34913;47.520;19.186;2024-03-23T11:03:34;98997.56;;;21.99;35.56
49102;BME280;34913;47.520;19.186;2024-03-23T11:06:02;98988.34;;;22.07;36.26
49102;BME280;34913;47.520;19.186;2024-03-23T11:08:35;98996.81;;;21.74;36.48
49102;BME280;34913;47.520;19.186;2024-03-23T11:11:20;98996.94;;;21.61;37.16
49102;BME280;34913;47.520;19.186;2024-03-23T11:13:52;98983.53;;;21.23;37.97
49102;BME280;34913;47.520;19.186;2024-03-23T11:16:23;98983.06;;;21.57;37.78
49102;BME280;34913;47.520;19.186;2024-03-23T11:18:49;98978.38;;;21.64;37.10
49102;BME280;34913;47.520;19.186;2024-03-23T11:21:52;98974.66;;;21.65;37.15
49102;BME280;34913;47.520;19.186;2024-03-23T11:24:21;98972.88;;;21.78;37.45
49102;BME280;34913;47.520;19.186;2024-03-23T11:26:48;98959.75;;;21.81;37.57
49102;BME280;34913;47.520;19.186;2024-03-23T11:29:17;98955.09;;;21.88;38.34
49102;BME280;34913;47.520;19.186;2024-03-23T11:31:48;98950.56;;;22.00;37.12
49102;BME280;34913;47.520;19.186;2024-03-23T11:34:21;98944.28;;;22.07;36.41
49102;BME280;34913;47.520;19.186;2024-03-23T11:36:47;98943.09;;;22.21;36.80
49102;BME280;34913;47.520;19.186;2024-03-23T11:39:16;98953.03;;;22.39;36.06
49102;BME280;34913;47.520;19.186;2024-03-23T11:41:49;98933.88;;;22.40;36.69
49102;BME280;34913;47.520;19.186;2024-03-23T11:44:19;98935.63;;;22.35;36.93
49102;BME280;34913;47.520;19.186;2024-03-23T11:46:46;98925.84;;;22.64;35.85
49102;BME280;34913;47.520;19.186;2024-03-23T11:49:23;98916.78;;;22.58;36.26
49102;BME280;34913;47.520;19.186;2024-03-23T11:51:50;98894.44;;;22.63;36.11
49102;BME280;34913;47.520;19.186;2024-03-23T11:54:16;98904.19;;;22.52;36.23
49102;BME280;34913;47.520;19.186;2024-03-23T11:57:03;98893.06;;;22.72;36.20
49102;BME280;34913;47.520;19.186;2024-03-23T11:59:47;98903.38;;;23.05;33.84
49102;BME280;34913;47.520;19.186;2024-03-23T12:02:13;98893.97;;;23.07;33.45
49102;BME280;34913;47.520;19.186;2024-03-23T12:04:42;98890.31;;;23.02;33.42
49102;BME280;34913;47.520;19.186;2024-03-23T12:07:18;98886.88;;;23.06;32.75
49102;BME280;34913;47.520;19.186;2024-03-23T12:10:02;98883.50;;;22.99;32.88
49102;BME280;34913;47.520;19.186;2024-03-23T12:12:28;98876.00;;;22.60;32.11
49102;BME280;34913;47.520;19.186;2024-03-23T12:15:07;98874.09;;;22.18;33.15
49102;BME280;34913;47.520;19.186;2024-03-23T12:17:33;98867.22;;;21.86;33.18
49102;BME280;34913;47.520;19.186;2024-03-23T12:20:02;98863.09;;;21.83;34.31
49102;BME280;34913;47.520;19.186;2024-03-23T12:22:28;98858.94;;;21.99;34.61
49102;BME280;34913;47.520;19.186;2024-03-23T12:24:54;98855.25;;;22.12;33.68
49102;BME280;34913;47.520;19.186;2024-03-23T12:27:20;98850.53;;;22.07;34.05
49102;BME280;34913;47.520;19.186;2024-03-23T12:29:45;98846.09;;;21.94;34.75
49102;BME280;34913;47.520;19.186;2024-03-23T12:32:14;98836.34;;;22.12;34.41
49102;BME280;34913;47.520;19.186;2024-03-23T12:34:40;98843.63;;;22.11;33.68
49102;BME280;34913;47.520;19.186;2024-03-23T12:37:06;98831.91;;;22.17;34.33
49102;BME280;34913;47.520;19.186;2024-03-23T12:39:32;98827.69;;;22.03;34.84
49102;BME280;34913;47.520;19.186;2024-03-23T12:41:57;98830.78;;;22.07;34.04
49102;BME280;34913;47.520;19.186;2024-03-23T12:44:22;98829.84;;;21.83;34.08
49102;BME280;34913;47.520;19.186;2024-03-23T12:46:48;98816.75;;;21.68;34.22
49102;BME280;34913;47.520;19.186;2024-03-23T12:49:13;98813.38;;;21.72;34.22
49102;BME280;34913;47.520;19.186;2024-03-23T12:51:38;98811.38;;;21.80;33.69
49102;BME280;34913;47.520;19.186;2024-03-23T12:54:04;98809.47;;;21.68;33.62
49102;BME280;34913;47.520;19.186;2024-03-23T12:56:30;98797.47;;;21.64;33.25
49102;BME280;34913;47.520;19.186;2024-03-23T12:58:58;98800.34;;;21.51;33.41
49102;BME280;34913;47.520;19.186;2024-03-23T13:01:24;98799.13;;;21.47;33.54
49102;BME280;34913;47.520;19.186;2024-03-23T13:03:50;98805.34;;;21.48;33.88
49102;BME280;34913;47.520;19.186;2024-03-23T13:06:16;98794.00;;;21.27;33.59
49102;BME280;34913;47.520;19.186;2024-03-23T13:08:44;98793.56;;;21.05;33.70
49102;BME280;34913;47.520;19.186;2024-03-23T13:11:10;98787.56;;;21.03;34.51
49102;BME280;34913;47.520;19.186;2024-03-23T13:13:38;98789.34;;;20.91;34.32
49102;BME280;34913;47.520;19.186;2024-03-23T13:16:04;98788.47;;;20.97;34.34
49102;BME280;34913;47.520;19.186;2024-03-23T13:18:31;98780.44;;;21.09;34.53
49102;BME280;34913;47.520;19.186;2024-03-23T13:20:57;98780.06;;;21.05;35.50
49102;BME280;34913;47.520;19.186;2024-03-23T13:23:23;98780.91;;;21.06;35.13
49102;BME280;34913;47.520;19.186;2024-03-23T13:25:52;98773.91;;;21.16;34.16
49102;BME280;34913;47.520;19.186;2024-03-23T13:28:18;98773.72;;;21.18;34.20
49102;BME280;34913;47.520;19.186;2024-03-23T13:30:53;98776.31;;;21.06;34.00
49102;BME280;34913;47.520;19.186;2024-03-23T13:33:19;98775.50;;;21.06;34.18
49102;BME280;34913;47.520;19.186;2024-03-23T13:35:54;98775.66;;;21.11;33.76
49102;BME280;34913;47.520;19.186;2024-03-23T13:38:21;98770.25;;;20.92;34.81
49102;BME280;34913;47.520;19.186;2024-03-23T13:43:19;98758.44;;;20.94;34.89
49102;BME280;34913;47.520;19.186;2024-03-23T13:45:47;98762.47;;;21.03;34.35
49102;BME280;34913;47.520;19.186;2024-03-23T13:48:12;98759.03;;;20.96;35.00
49102;BME280;34913;47.520;19.186;2024-03-23T13:50:38;98745.91;;;20.99;35.00
49102;BME280;34913;47.520;19.186;2024-03-23T13:53:03;98750.16;;;21.07;35.05
49102;BME280;34913;47.520;19.186;2024-03-23T13:55:28;98753.69;;;20.89;34.94